METAR Data
IDs: Format: Raw Decoded Include TAF

Data at: 0250 UTC 15 Aug 2020

METAR for:KNYG (Quantico (MCAF), VA, US)
Text:KNYG 150156Z AUTO 06005KT 10SM BKN070 OVC100 26/22 A2999 RMK AO2 SLP155 T02560222
Temperature: 25.6°C ( 78°F)
Dewpoint: 22.2°C ( 72°F) [RH = 82%]
Pressure (altimeter):29.99 inches Hg (1015.7 mb) [Sea level pressure: 1015.5 mb]
Winds:from the ENE (60 degrees) at 6 MPH (5 knots; 2.6 m/s)
Visibility:10 or more sm (16+ km)
Ceiling:7000 feet AGL
Clouds: broken clouds at 7000 feet AGL, overcast cloud deck at 10000 feet AGL
QC Flag:automated observation with no human augmentation